sensor_id;sensor_type;location;lat;lon;timestamp;P1;durP1;ratioP1;P2;durP2;ratioP2
54871;SDS011;43914;57.680;11.982;2023-01-10T00:02:13;22.60;;;6.30;;
54871;SDS011;43914;57.680;11.982;2023-01-10T00:04:38;17.90;;;5.40;;
54871;SDS011;43914;57.680;11.982;2023-01-10T00:07:04;19.30;;;5.70;;
54871;SDS011;43914;57.680;11.982;2023-01-10T00:09:30;23.70;;;7.60;;
54871;SDS011;43914;57.680;11.982;2023-01-10T00:11:56;23.30;;;6.50;;
54871;SDS011;43914;57.680;11.982;2023-01-10T00:14:40;19.50;;;5.50;;
54871;SDS011;43914;57.680;11.982;2023-01-10T00:17:05;16.20;;;5.70;;
54871;SDS011;43914;57.680;11.982;2023-01-10T00:19:31;18.80;;;5.90;;
54871;SDS011;43914;57.680;11.982;2023-01-10T00:21:56;18.60;;;5.10;;
54871;SDS011;43914;57.680;11.982;2023-01-10T00:24:27;18.90;;;5.30;;
54871;SDS011;43914;57.680;11.982;2023-01-10T00:26:52;13.70;;;4.70;;
54871;SDS011;43914;57.680;11.982;2023-01-10T00:31:55;17.90;;;4.80;;
54871;SDS011;43914;57.680;11.982;2023-01-10T00:34:21;17.60;;;6.70;;
54871;SDS011;43914;57.680;11.982;2023-01-10T00:36:47;17.60;;;6.20;;
54871;SDS011;43914;57.680;11.982;2023-01-10T00:39:12;14.80;;;5.00;;
54871;SDS011;43914;57.680;11.982;2023-01-10T00:41:39;15.90;;;4.90;;
54871;SDS011;43914;57.680;11.982;2023-01-10T00:44:24;15.10;;;5.60;;
54871;SDS011;43914;57.680;11.982;2023-01-10T00:46:50;19.80;;;5.80;;
54871;SDS011;43914;57.680;11.982;2023-01-10T00:49:16;23.50;;;6.20;;
54871;SDS011;43914;57.680;11.982;2023-01-10T00:51:43;17.30;;;5.60;;
54871;SDS011;43914;57.680;11.982;2023-01-10T00:54:09;15.20;;;5.60;;
54871;SDS011;43914;57.680;11.982;2023-01-10T00:56:36;18.90;;;5.00;;
54871;SDS011;43914;57.680;11.982;2023-01-10T00:59:02;15.80;;;5.00;;
54871;SDS011;43914;57.680;11.982;2023-01-10T01:01:29;15.90;;;5.10;;
54871;SDS011;43914;57.680;11.982;2023-01-10T01:03:55;20.40;;;5.10;;
54871;SDS011;43914;57.680;11.982;2023-01-10T01:06:23;20.20;;;5.60;;
54871;SDS011;43914;57.680;11.982;2023-01-10T01:08:49;12.50;;;4.20;;
54871;SDS011;43914;57.680;11.982;2023-01-10T01:11:15;17.10;;;4.20;;
54871;SDS011;43914;57.680;11.982;2023-01-10T01:13:41;12.70;;;4.30;;
54871;SDS011;43914;57.680;11.982;2023-01-10T01:16:07;14.00;;;3.20;;
54871;SDS011;43914;57.680;11.982;2023-01-10T01:18:32;15.10;;;3.80;;
54871;SDS011;43914;57.680;11.982;2023-01-10T01:20:58;14.70;;;4.30;;
54871;SDS011;43914;57.680;11.982;2023-01-10T01:23:28;15.30;;;4.00;;
54871;SDS011;43914;57.680;11.982;2023-01-10T01:25:54;13.60;;;4.00;;
54871;SDS011;43914;57.680;11.982;2023-01-10T01:28:20;13.80;;;3.80;;
54871;SDS011;43914;57.680;11.982;2023-01-10T01:30:47;10.30;;;3.50;;
54871;SDS011;43914;57.680;11.982;2023-01-10T01:33:13;14.60;;;3.80;;
54871;SDS011;43914;57.680;11.982;2023-01-10T01:35:45;11.60;;;2.80;;
54871;SDS011;43914;57.680;11.982;2023-01-10T01:38:13;12.80;;;3.70;;
54871;SDS011;43914;57.680;11.982;2023-01-10T01:40:40;16.90;;;3.90;;
54871;SDS011;43914;57.680;11.982;2023-01-10T01:43:20;11.70;;;3.60;;
54871;SDS011;43914;57.680;11.982;2023-01-10T01:45:50;17.70;;;3.80;;
54871;SDS011;43914;57.680;11.982;2023-01-10T01:48:34;13.80;;;3.60;;
54871;SDS011;43914;57.680;11.982;2023-01-10T01:51:13;15.80;;;3.90;;
54871;SDS011;43914;57.680;11.982;2023-01-10T01:53:47;16.10;;;3.80;;
54871;SDS011;43914;57.680;11.982;2023-01-10T01:56:16;13.50;;;3.60;;
54871;SDS011;43914;57.680;11.982;2023-01-10T01:58:56;12.80;;;3.90;;
54871;SDS011;43914;57.680;11.982;2023-01-10T02:01:30;13.00;;;3.50;;
54871;SDS011;43914;57.680;11.982;2023-01-10T02:04:03;14.50;;;3.30;;
54871;SDS011;43914;57.680;11.982;2023-01-10T02:06:39;11.00;;;3.30;;
54871;SDS011;43914;57.680;11.982;2023-01-10T02:09:11;13.70;;;3.30;;
54871;SDS011;43914;57.680;11.982;2023-01-10T02:11:45;12.70;;;2.20;;
54871;SDS011;43914;57.680;11.982;2023-01-10T02:14:11;11.50;;;2.90;;
54871;SDS011;43914;57.680;11.982;2023-01-10T02:16:38;10.70;;;3.10;;
54871;SDS011;43914;57.680;11.982;2023-01-10T02:19:05;9.50;;;2.70;;
54871;SDS011;43914;57.680;11.982;2023-01-10T02:21:49;14.00;;;3.10;;
54871;SDS011;43914;57.680;11.982;2023-01-10T02:24:46;11.10;;;2.90;;
54871;SDS011;43914;57.680;11.982;2023-01-10T02:33:29;12.90;;;3.20;;
54871;SDS011;43914;57.680;11.982;2023-01-10T02:36:13;12.10;;;3.30;;
54871;SDS011;43914;57.680;11.982;2023-01-10T02:38:45;11.60;;;3.70;;
54871;SDS011;43914;57.680;11.982;2023-01-10T02:41:47;12.00;;;3.30;;
54871;SDS011;43914;57.680;11.982;2023-01-10T02:44:43;16.00;;;4.20;;
54871;SDS011;43914;57.680;11.982;2023-01-10T02:47:15;16.60;;;4.50;;
54871;SDS011;43914;57.680;11.982;2023-01-10T02:49:44;17.10;;;4.40;;
54871;SDS011;43914;57.680;11.982;2023-01-10T02:52:25;15.20;;;4.10;;
54871;SDS011;43914;57.680;11.982;2023-01-10T02:54:55;17.00;;;4.90;;
54871;SDS011;43914;57.680;11.982;2023-01-10T03:03:23;17.00;;;4.60;;
54871;SDS011;43914;57.680;11.982;2023-01-10T03:08:36;16.60;;;4.90;;
54871;SDS011;43914;57.680;11.982;2023-01-10T03:11:04;15.00;;;4.40;;
54871;SDS011;43914;57.680;11.982;2023-01-10T03:16:06;12.50;;;4.60;;
54871;SDS011;43914;57.680;11.982;2023-01-10T03:18:38;12.40;;;4.30;;
54871;SDS011;43914;57.680;11.982;2023-01-10T03:21:21;12.40;;;4.60;;
54871;SDS011;43914;57.680;11.982;2023-01-10T03:23:51;14.70;;;5.10;;
54871;SDS011;43914;57.680;11.982;2023-01-10T03:26:31;18.80;;;4.70;;
54871;SDS011;43914;57.680;11.982;2023-01-10T03:29:09;17.10;;;4.70;;
54871;SDS011;43914;57.680;11.982;2023-01-10T03:31:39;14.30;;;4.40;;
54871;SDS011;43914;57.680;11.982;2023-01-10T03:34:12;21.70;;;4.70;;
54871;SDS011;43914;57.680;11.982;2023-01-10T03:42:06;16.20;;;4.30;;
54871;SDS011;43914;57.680;11.982;2023-01-10T03:50:19;17.20;;;4.10;;
54871;SDS011;43914;57.680;11.982;2023-01-10T03:52:47;10.30;;;3.80;;
54871;SDS011;43914;57.680;11.982;2023-01-10T03:55:14;14.70;;;4.90;;
54871;SDS011;43914;57.680;11.982;2023-01-10T03:57:44;14.50;;;3.90;;
54871;SDS011;43914;57.680;11.982;2023-01-10T04:00:10;11.10;;;3.70;;
54871;SDS011;43914;57.680;11.982;2023-01-10T04:02:39;11.90;;;3.50;;
54871;SDS011;43914;57.680;11.982;2023-01-10T04:05:05;16.00;;;4.20;;
54871;SDS011;43914;57.680;11.982;2023-01-10T04:07:32;15.70;;;4.40;;
54871;SDS011;43914;57.680;11.982;2023-01-10T04:09:57;16.70;;;4.50;;
54871;SDS011;43914;57.680;11.982;2023-01-10T04:12:23;17.60;;;5.20;;
54871;SDS011;43914;57.680;11.982;2023-01-10T04:14:48;13.10;;;4.10;;
54871;SDS011;43914;57.680;11.982;2023-01-10T04:17:14;14.30;;;4.90;;
54871;SDS011;43914;57.680;11.982;2023-01-10T04:19:41;13.80;;;4.30;;
54871;SDS011;43914;57.680;11.982;2023-01-10T04:22:07;15.80;;;4.30;;
54871;SDS011;43914;57.680;11.982;2023-01-10T04:24:34;14.30;;;4.40;;
54871;SDS011;43914;57.680;11.982;2023-01-10T04:26:59;14.90;;;4.50;;
54871;SDS011;43914;57.680;11.982;2023-01-10T04:29:25;14.10;;;4.30;;
54871;SDS011;43914;57.680;11.982;2023-01-10T04:31:51;14.30;;;4.10;;
54871;SDS011;43914;57.680;11.982;2023-01-10T04:34:17;13.50;;;4.20;;
54871;SDS011;43914;57.680;11.982;2023-01-10T04:36:44;14.20;;;3.90;;
54871;SDS011;43914;57.680;11.982;2023-01-10T04:39:10;13.10;;;3.40;;
54871;SDS011;43914;57.680;11.982;2023-01-10T04:41:36;11.30;;;3.20;;
54871;SDS011;43914;57.680;11.982;2023-01-10T04:44:02;13.60;;;3.50;;
54871;SDS011;43914;57.680;11.982;2023-01-10T04:46:29;10.20;;;2.90;;
54871;SDS011;43914;57.680;11.982;2023-01-10T04:48:54;12.00;;;3.30;;
54871;SDS011;43914;57.680;11.982;2023-01-10T04:51:20;17.10;;;3.70;;
54871;SDS011;43914;57.680;11.982;2023-01-10T04:53:46;10.50;;;2.70;;
54871;SDS011;43914;57.680;11.982;2023-01-10T04:56:15;13.00;;;3.60;;
54871;SDS011;43914;57.680;11.982;2023-01-10T04:58:43;12.80;;;3.10;;
54871;SDS011;43914;57.680;11.982;2023-01-10T05:01:12;11.70;;;3.00;;
54871;SDS011;43914;57.680;11.982;2023-01-10T05:03:40;8.90;;;2.60;;
54871;SDS011;43914;57.680;11.982;2023-01-10T05:06:06;9.20;;;2.60;;
54871;SDS011;43914;57.680;11.982;2023-01-10T05:08:32;11.30;;;3.20;;
54871;SDS011;43914;57.680;11.982;2023-01-10T05:10:58;13.60;;;3.20;;
54871;SDS011;43914;57.680;11.982;2023-01-10T05:13:23;14.10;;;3.40;;
54871;SDS011;43914;57.680;11.982;2023-01-10T05:15:54;12.60;;;2.90;;
54871;SDS011;43914;57.680;11.982;2023-01-10T05:18:22;12.60;;;2.80;;
54871;SDS011;43914;57.680;11.982;2023-01-10T05:20:48;17.30;;;2.90;;
54871;SDS011;43914;57.680;11.982;2023-01-10T05:23:14;11.60;;;3.00;;
54871;SDS011;43914;57.680;11.982;2023-01-10T05:25:40;15.10;;;3.00;;
54871;SDS011;43914;57.680;11.982;2023-01-10T05:28:05;11.00;;;2.60;;
54871;SDS011;43914;57.680;11.982;2023-01-10T05:30:31;11.50;;;2.90;;
54871;SDS011;43914;57.680;11.982;2023-01-10T05:32:56;12.00;;;2.80;;
54871;SDS011;43914;57.680;11.982;2023-01-10T05:35:22;11.40;;;2.80;;
54871;SDS011;43914;57.680;11.982;2023-01-10T05:37:48;10.20;;;2.40;;
54871;SDS011;43914;57.680;11.982;2023-01-10T05:40:13;11.80;;;2.60;;
54871;SDS011;43914;57.680;11.982;2023-01-10T05:42:39;11.30;;;2.60;;
54871;SDS011;43914;57.680;11.982;2023-01-10T05:45:06;10.80;;;2.80;;
54871;SDS011;43914;57.680;11.982;2023-01-10T05:47:32;11.70;;;2.70;;
54871;SDS011;43914;57.680;11.982;2023-01-10T05:49:57;12.60;;;2.90;;
54871;SDS011;43914;57.680;11.982;2023-01-10T05:52:23;8.40;;;2.40;;
54871;SDS011;43914;57.680;11.982;2023-01-10T05:54:48;13.30;;;2.60;;
54871;SDS011;43914;57.680;11.982;2023-01-10T05:57:14;12.40;;;2.90;;
54871;SDS011;43914;57.680;11.982;2023-01-10T05:59:39;11.20;;;2.70;;
54871;SDS011;43914;57.680;11.982;2023-01-10T06:02:05;12.90;;;2.90;;
54871;SDS011;43914;57.680;11.982;2023-01-10T06:04:30;15.40;;;3.20;;
54871;SDS011;43914;57.680;11.982;2023-01-10T06:06:56;10.90;;;2.60;;
54871;SDS011;43914;57.680;11.982;2023-01-10T06:09:21;10.40;;;2.40;;
54871;SDS011;43914;57.680;11.982;2023-01-10T06:11:46;11.90;;;3.00;;
54871;SDS011;43914;57.680;11.982;2023-01-10T06:14:12;10.20;;;2.40;;
54871;SDS011;43914;57.680;11.982;2023-01-10T06:16:43;10.30;;;2.60;;
54871;SDS011;43914;57.680;11.982;2023-01-10T06:19:11;11.50;;;2.50;;
54871;SDS011;43914;57.680;11.982;2023-01-10T06:21:37;11.00;;;2.40;;
54871;SDS011;43914;57.680;11.982;2023-01-10T06:24:02;11.80;;;2.60;;
54871;SDS011;43914;57.680;11.982;2023-01-10T06:26:28;9.90;;;2.40;;
54871;SDS011;43914;57.680;11.982;2023-01-10T06:28:53;8.20;;;2.30;;
54871;SDS011;43914;57.680;11.982;2023-01-10T06:31:19;12.90;;;3.20;;
54871;SDS011;43914;57.680;11.982;2023-01-10T06:33:44;10.70;;;2.50;;
54871;SDS011;43914;57.680;11.982;2023-01-10T06:36:09;12.10;;;2.60;;
54871;SDS011;43914;57.680;11.982;2023-01-10T06:38:35;13.30;;;2.50;;
54871;SDS011;43914;57.680;11.982;2023-01-10T06:41:01;14.60;;;3.00;;
54871;SDS011;43914;57.680;11.982;2023-01-10T06:43:41;12.60;;;3.20;;
54871;SDS011;43914;57.680;11.982;2023-01-10T06:46:12;17.00;;;3.10;;
54871;SDS011;43914;57.680;11.982;2023-01-10T06:48:40;15.30;;;2.40;;
54871;SDS011;43914;57.680;11.982;2023-01-10T06:51:08;14.80;;;3.40;;
54871;SDS011;43914;57.680;11.982;2023-01-10T06:53:34;13.00;;;3.40;;
54871;SDS011;43914;57.680;11.982;2023-01-10T06:55:59;17.20;;;2.90;;
54871;SDS011;43914;57.680;11.982;2023-01-10T06:58:25;13.30;;;2.80;;
54871;SDS011;43914;57.680;11.982;2023-01-10T07:00:50;14.30;;;2.40;;
54871;SDS011;43914;57.680;11.982;2023-01-10T07:03:16;18.40;;;3.40;;
54871;SDS011;43914;57.680;11.982;2023-01-10T07:05:41;13.10;;;2.60;;
54871;SDS011;43914;57.680;11.982;2023-01-10T07:08:07;15.70;;;2.50;;
54871;SDS011;43914;57.680;11.982;2023-01-10T07:10:32;12.10;;;2.30;;
54871;SDS011;43914;57.680;11.982;2023-01-10T07:12:58;12.30;;;2.40;;
54871;SDS011;43914;57.680;11.982;2023-01-10T07:15:24;12.30;;;2.90;;
54871;SDS011;43914;57.680;11.982;2023-01-10T07:17:51;12.90;;;2.60;;
54871;SDS011;43914;57.680;11.982;2023-01-10T07:20:16;11.50;;;2.30;;
54871;SDS011;43914;57.680;11.982;2023-01-10T07:22:42;11.50;;;2.20;;
54871;SDS011;43914;57.680;11.982;2023-01-10T07:25:08;10.40;;;2.10;;
54871;SDS011;43914;57.680;11.982;2023-01-10T07:27:33;8.60;;;2.00;;
54871;SDS011;43914;57.680;11.982;2023-01-10T07:29:59;12.90;;;2.70;;
54871;SDS011;43914;57.680;11.982;2023-01-10T07:32:25;9.60;;;2.00;;
54871;SDS011;43914;57.680;11.982;2023-01-10T07:34:51;7.90;;;1.80;;
54871;SDS011;43914;57.680;11.982;2023-01-10T07:37:16;10.50;;;2.00;;
54871;SDS011;43914;57.680;11.982;2023-01-10T07:39:42;9.30;;;1.70;;
54871;SDS011;43914;57.680;11.982;2023-01-10T07:42:08;8.50;;;2.00;;
54871;SDS011;43914;57.680;11.982;2023-01-10T07:44:34;9.90;;;2.00;;
54871;SDS011;43914;57.680;11.982;2023-01-10T07:46:59;9.50;;;2.20;;
54871;SDS011;43914;57.680;11.982;2023-01-10T07:49:25;11.20;;;1.90;;
54871;SDS011;43914;57.680;11.982;2023-01-10T07:51:50;9.90;;;1.90;;
54871;SDS011;43914;57.680;11.982;2023-01-10T07:54:16;11.30;;;1.90;;
54871;SDS011;43914;57.680;11.982;2023-01-10T07:56:41;10.60;;;2.20;;
54871;SDS011;43914;57.680;11.982;2023-01-10T07:59:07;11.30;;;2.10;;
54871;SDS011;43914;57.680;11.982;2023-01-10T08:01:33;12.10;;;2.50;;
54871;SDS011;43914;57.680;11.982;2023-01-10T08:03:58;9.90;;;2.20;;
54871;SDS011;43914;57.680;11.982;2023-01-10T08:06:24;12.80;;;2.30;;
54871;SDS011;43914;57.680;11.982;2023-01-10T08:08:50;9.80;;;2.10;;
54871;SDS011;43914;57.680;11.982;2023-01-10T08:11:15;10.00;;;1.80;;
54871;SDS011;43914;57.680;11.982;2023-01-10T08:13:40;9.40;;;2.10;;
54871;SDS011;43914;57.680;11.982;2023-01-10T08:16:06;12.80;;;2.70;;
54871;SDS011;43914;57.680;11.982;2023-01-10T08:18:33;11.90;;;2.10;;
54871;SDS011;43914;57.680;11.982;2023-01-10T08:20:58;10.80;;;2.20;;
54871;SDS011;43914;57.680;11.982;2023-01-10T08:23:24;12.70;;;2.40;;
54871;SDS011;43914;57.680;11.982;2023-01-10T08:25:51;11.50;;;2.50;;
54871;SDS011;43914;57.680;11.982;2023-01-10T08:28:17;16.20;;;2.70;;
54871;SDS011;43914;57.680;11.982;2023-01-10T08:30:43;10.10;;;1.90;;
54871;SDS011;43914;57.680;11.982;2023-01-10T08:33:09;12.40;;;2.60;;
54871;SDS011;43914;57.680;11.982;2023-01-10T08:35:37;11.00;;;2.00;;
54871;SDS011;43914;57.680;11.982;2023-01-10T08:38:07;11.60;;;2.20;;
54871;SDS011;43914;57.680;11.982;2023-01-10T08:40:33;12.10;;;2.40;;
54871;SDS011;43914;57.680;11.982;2023-01-10T08:42:59;9.90;;;2.20;;
54871;SDS011;43914;57.680;11.982;2023-01-10T08:45:30;12.00;;;2.20;;
54871;SDS011;43914;57.680;11.982;2023-01-10T08:47:56;8.70;;;1.80;;
54871;SDS011;43914;57.680;11.982;2023-01-10T08:50:22;12.90;;;1.90;;
54871;SDS011;43914;57.680;11.982;2023-01-10T08:52:48;16.50;;;2.00;;
54871;SDS011;43914;57.680;11.982;2023-01-10T08:55:15;11.40;;;1.70;;
54871;SDS011;43914;57.680;11.982;2023-01-10T08:57:42;8.90;;;2.40;;
54871;SDS011;43914;57.680;11.982;2023-01-10T09:00:08;7.10;;;1.70;;
54871;SDS011;43914;57.680;11.982;2023-01-10T09:02:36;9.30;;;2.10;;
54871;SDS011;43914;57.680;11.982;2023-01-10T09:05:03;13.20;;;2.20;;
54871;SDS011;43914;57.680;11.982;2023-01-10T09:07:30;11.10;;;2.30;;
54871;SDS011;43914;57.680;11.982;2023-01-10T09:09:55;11.20;;;1.90;;
54871;SDS011;43914;57.680;11.982;2023-01-10T09:12:21;9.70;;;2.60;;
54871;SDS011;43914;57.680;11.982;2023-01-10T09:15:05;10.20;;;2.20;;
54871;SDS011;43914;57.680;11.982;2023-01-10T09:17:31;9.20;;;1.90;;
54871;SDS011;43914;57.680;11.982;2023-01-10T09:19:57;9.10;;;2.10;;
54871;SDS011;43914;57.680;11.982;2023-01-10T09:22:22;9.60;;;2.40;;
54871;SDS011;43914;57.680;11.982;2023-01-10T09:24:48;14.70;;;2.50;;
54871;SDS011;43914;57.680;11.982;2023-01-10T09:27:13;10.90;;;2.40;;
54871;SDS011;43914;57.680;11.982;2023-01-10T09:29:39;10.60;;;2.20;;
54871;SDS011;43914;57.680;11.982;2023-01-10T09:32:05;9.50;;;2.00;;
54871;SDS011;43914;57.680;11.982;2023-01-10T09:34:31;11.60;;;3.00;;
54871;SDS011;43914;57.680;11.982;2023-01-10T09:36:57;15.50;;;2.70;;
54871;SDS011;43914;57.680;11.982;2023-01-10T09:39:22;11.20;;;2.70;;
54871;SDS011;43914;57.680;11.982;2023-01-10T09:47:46;10.90;;;2.10;;
54871;SDS011;43914;57.680;11.982;2023-01-10T09:51:06;11.50;;;2.10;;
54871;SDS011;43914;57.680;11.982;2023-01-10T09:53:17;13.40;;;2.60;;
54871;SDS011;43914;57.680;11.982;2023-01-10T09:56:04;9.30;;;2.00;;
54871;SDS011;43914;57.680;11.982;2023-01-10T09:58:32;10.70;;;2.10;;
54871;SDS011;43914;57.680;11.982;2023-01-10T10:01:06;10.30;;;2.40;;
54871;SDS011;43914;57.680;11.982;2023-01-10T10:03:53;13.00;;;3.00;;
54871;SDS011;43914;57.680;11.982;2023-01-10T10:06:42;10.70;;;2.20;;
54871;SDS011;43914;57.680;11.982;2023-01-10T10:09:10;9.90;;;2.20;;
54871;SDS011;43914;57.680;11.982;2023-01-10T10:11:48;10.40;;;2.10;;
54871;SDS011;43914;57.680;11.982;2023-01-10T10:17:20;17.20;;;2.20;;
54871;SDS011;43914;57.680;11.982;2023-01-10T10:36:14;12.10;;;2.60;;
54871;SDS011;43914;57.680;11.982;2023-01-10T10:38:48;12.10;;;2.30;;
54871;SDS011;43914;57.680;11.982;2023-01-10T10:41:17;15.20;;;2.50;;
54871;SDS011;43914;57.680;11.982;2023-01-10T10:44:00;12.30;;;2.50;;
54871;SDS011;43914;57.680;11.982;2023-01-10T10:46:42;13.80;;;2.20;;
54871;SDS011;43914;57.680;11.982;2023-01-10T10:49:13;12.10;;;2.10;;
54871;SDS011;43914;57.680;11.982;2023-01-10T10:51:49;13.60;;;2.10;;
54871;SDS011;43914;57.680;11.982;2023-01-10T10:54:16;16.40;;;2.40;;
54871;SDS011;43914;57.680;11.982;2023-01-10T10:56:43;12.50;;;2.20;;
54871;SDS011;43914;57.680;11.982;2023-01-10T10:59:10;14.10;;;2.70;;
54871;SDS011;43914;57.680;11.982;2023-01-10T11:01:42;15.20;;;2.50;;
54871;SDS011;43914;57.680;11.982;2023-01-10T11:04:16;11.10;;;2.40;;
54871;SDS011;43914;57.680;11.982;2023-01-10T11:06:45;14.00;;;2.50;;
54871;SDS011;43914;57.680;11.982;2023-01-10T11:09:21;14.80;;;2.50;;
54871;SDS011;43914;57.680;11.982;2023-01-10T11:12:14;15.00;;;2.60;;
54871;SDS011;43914;57.680;11.982;2023-01-10T11:14:51;15.30;;;2.80;;
54871;SDS011;43914;57.680;11.982;2023-01-10T11:19:55;14.10;;;2.90;;
54871;SDS011;43914;57.680;11.982;2023-01-10T11:22:48;11.40;;;2.90;;
54871;SDS011;43914;57.680;11.982;2023-01-10T11:25:18;15.20;;;3.10;;
54871;SDS011;43914;57.680;11.982;2023-01-10T11:27:49;10.00;;;2.60;;
54871;SDS011;43914;57.680;11.982;2023-01-10T11:30:20;12.90;;;2.40;;
54871;SDS011;43914;57.680;11.982;2023-01-10T11:35:37;19.40;;;2.40;;
54871;SDS011;43914;57.680;11.982;2023-01-10T11:40:37;15.40;;;3.10;;
54871;SDS011;43914;57.680;11.982;2023-01-10T11:45:53;12.10;;;2.40;;
54871;SDS011;43914;57.680;11.982;2023-01-10T11:48:22;15.80;;;2.70;;
54871;SDS011;43914;57.680;11.982;2023-01-10T11:50:50;18.60;;;2.80;;
54871;SDS011;43914;57.680;11.982;2023-01-10T11:53:37;18.80;;;2.50;;
54871;SDS011;43914;57.680;11.982;2023-01-10T11:56:06;18.80;;;3.30;;
54871;SDS011;43914;57.680;11.982;2023-01-10T11:58:35;13.50;;;2.50;;
54871;SDS011;43914;57.680;11.982;2023-01-10T12:01:02;11.30;;;2.10;;
54871;SDS011;43914;57.680;11.982;2023-01-10T12:03:32;14.00;;;2.60;;
54871;SDS011;43914;57.680;11.982;2023-01-10T12:06:07;19.80;;;3.10;;
54871;SDS011;43914;57.680;11.982;2023-01-10T12:08:39;19.30;;;3.90;;
54871;SDS011;43914;57.680;11.982;2023-01-10T12:13:52;16.70;;;2.80;;
54871;SDS011;43914;57.680;11.982;2023-01-10T12:16:31;19.60;;;2.70;;
54871;SDS011;43914;57.680;11.982;2023-01-10T12:18:59;16.80;;;3.10;;
54871;SDS011;43914;57.680;11.982;2023-01-10T12:21:47;21.20;;;3.40;;
54871;SDS011;43914;57.680;11.982;2023-01-10T12:26:53;30.80;;;3.00;;
54871;SDS011;43914;57.680;11.982;2023-01-10T12:29:25;25.90;;;3.50;;
54871;SDS011;43914;57.680;11.982;2023-01-10T12:31:56;17.10;;;2.80;;
54871;SDS011;43914;57.680;11.982;2023-01-10T12:34:33;22.20;;;3.60;;
54871;SDS011;43914;57.680;11.982;2023-01-10T12:37:08;18.90;;;3.10;;
54871;SDS011;43914;57.680;11.982;2023-01-10T12:39:44;18.20;;;2.90;;
54871;SDS011;43914;57.680;11.982;2023-01-10T12:42:20;21.90;;;3.00;;
54871;SDS011;43914;57.680;11.982;2023-01-10T12:50:53;19.40;;;3.30;;
54871;SDS011;43914;57.680;11.982;2023-01-10T12:55:49;22.00;;;3.80;;
54871;SDS011;43914;57.680;11.982;2023-01-10T12:58:26;26.10;;;4.00;;
54871;SDS011;43914;57.680;11.982;2023-01-10T13:00:58;22.70;;;3.40;;
54871;SDS011;43914;57.680;11.982;2023-01-10T13:03:26;23.80;;;3.40;;
54871;SDS011;43914;57.680;11.982;2023-01-10T13:05:57;21.00;;;3.30;;
54871;SDS011;43914;57.680;11.982;2023-01-10T13:08:27;21.40;;;3.30;;
54871;SDS011;43914;57.680;11.982;2023-01-10T13:10:56;23.90;;;3.30;;
54871;SDS011;43914;57.680;11.982;2023-01-10T13:22:17;23.70;;;3.30;;
54871;SDS011;43914;57.680;11.982;2023-01-10T13:24:53;21.90;;;3.00;;
54871;SDS011;43914;57.680;11.982;2023-01-10T13:27:21;29.30;;;4.10;;
54871;SDS011;43914;57.680;11.982;2023-01-10T13:29:51;18.40;;;2.70;;
54871;SDS011;43914;57.680;11.982;2023-01-10T13:32:20;27.00;;;4.20;;
54871;SDS011;43914;57.680;11.982;2023-01-10T13:34:48;29.20;;;4.00;;
54871;SDS011;43914;57.680;11.982;2023-01-10T13:37:23;28.20;;;3.10;;
54871;SDS011;43914;57.680;11.982;2023-01-10T13:39:55;17.70;;;2.90;;
54871;SDS011;43914;57.680;11.982;2023-01-10T13:58:38;16.90;;;3.20;;
54871;SDS011;43914;57.680;11.982;2023-01-10T14:01:21;24.80;;;3.60;;
54871;SDS011;43914;57.680;11.982;2023-01-10T14:04:25;21.80;;;3.00;;
54871;SDS011;43914;57.680;11.982;2023-01-10T14:06:55;23.20;;;3.60;;
54871;SDS011;43914;57.680;11.982;2023-01-10T14:09:43;19.10;;;3.20;;
54871;SDS011;43914;57.680;11.982;2023-01-10T14:14:51;20.30;;;2.50;;
54871;SDS011;43914;57.680;11.982;2023-01-10T14:17:21;18.50;;;3.00;;
54871;SDS011;43914;57.680;11.982;2023-01-10T14:20:00;21.80;;;2.90;;
54871;SDS011;43914;57.680;11.982;2023-01-10T14:22:31;22.80;;;3.20;;
54871;SDS011;43914;57.680;11.982;2023-01-10T14:24:59;27.90;;;3.40;;
54871;SDS011;43914;57.680;11.982;2023-01-10T14:27:31;18.60;;;3.00;;
54871;SDS011;43914;57.680;11.982;2023-01-10T14:30:06;23.20;;;3.20;;
54871;SDS011;43914;57.680;11.982;2023-01-10T14:32:40;18.60;;;3.00;;
54871;SDS011;43914;57.680;11.982;2023-01-10T14:35:08;20.50;;;3.30;;
54871;SDS011;43914;57.680;11.982;2023-01-10T14:37:41;21.30;;;3.20;;
54871;SDS011;43914;57.680;11.982;2023-01-10T14:42:50;18.90;;;2.90;;
54871;SDS011;43914;57.680;11.982;2023-01-10T14:50:51;21.10;;;3.50;;
54871;SDS011;43914;57.680;11.982;2023-01-10T14:53:31;24.90;;;3.70;;
54871;SDS011;43914;57.680;11.982;2023-01-10T14:55:56;20.10;;;2.70;;
54871;SDS011;43914;57.680;11.982;2023-01-10T14:58:23;29.30;;;3.90;;
54871;SDS011;43914;57.680;11.982;2023-01-10T15:00:49;20.40;;;3.00;;
54871;SDS011;43914;57.680;11.982;2023-01-10T15:03:20;24.50;;;3.30;;
54871;SDS011;43914;57.680;11.982;2023-01-10T15:05:50;27.90;;;4.10;;
54871;SDS011;43914;57.680;11.982;2023-01-10T15:08:21;24.50;;;3.20;;
54871;SDS011;43914;57.680;11.982;2023-01-10T15:10:48;21.50;;;3.30;;
54871;SDS011;43914;57.680;11.982;2023-01-10T15:13:40;23.30;;;3.30;;
54871;SDS011;43914;57.680;11.982;2023-01-10T15:16:21;23.60;;;3.60;;
54871;SDS011;43914;57.680;11.982;2023-01-10T15:18:48;17.00;;;2.10;;
54871;SDS011;43914;57.680;11.982;2023-01-10T15:21:16;25.40;;;3.60;;
54871;SDS011;43914;57.680;11.982;2023-01-10T15:23:46;20.10;;;2.70;;
54871;SDS011;43914;57.680;11.982;2023-01-10T15:26:13;22.20;;;3.20;;
54871;SDS011;43914;57.680;11.982;2023-01-10T15:28:43;25.70;;;3.60;;
54871;SDS011;43914;57.680;11.982;2023-01-10T15:31:14;21.80;;;3.20;;
54871;SDS011;43914;57.680;11.982;2023-01-10T15:33:42;21.90;;;3.10;;
54871;SDS011;43914;57.680;11.982;2023-01-10T15:36:12;20.30;;;2.70;;
54871;SDS011;43914;57.680;11.982;2023-01-10T15:38:43;19.70;;;2.90;;
54871;SDS011;43914;57.680;11.982;2023-01-10T15:41:15;22.90;;;3.50;;
54871;SDS011;43914;57.680;11.982;2023-01-10T15:43:43;22.60;;;3.80;;
54871;SDS011;43914;57.680;11.982;2023-01-10T15:46:16;23.90;;;3.10;;
54871;SDS011;43914;57.680;11.982;2023-01-10T15:48:52;27.20;;;3.40;;
54871;SDS011;43914;57.680;11.982;2023-01-10T15:51:39;20.20;;;3.30;;
54871;SDS011;43914;57.680;11.982;2023-01-10T15:56:52;17.60;;;3.50;;
54871;SDS011;43914;57.680;11.982;2023-01-10T15:59:56;18.50;;;2.70;;
54871;SDS011;43914;57.680;11.982;2023-01-10T16:05:13;15.70;;;2.90;;
54871;SDS011;43914;57.680;11.982;2023-01-10T16:07:42;20.80;;;2.70;;
54871;SDS011;43914;57.680;11.982;2023-01-10T16:10:17;16.30;;;3.00;;
54871;SDS011;43914;57.680;11.982;2023-01-10T16:12:50;19.30;;;2.90;;
54871;SDS011;43914;57.680;11.982;2023-01-10T16:15:36;24.50;;;3.50;;
54871;SDS011;43914;57.680;11.982;2023-01-10T16:18:04;30.00;;;3.40;;
54871;SDS011;43914;57.680;11.982;2023-01-10T16:20:31;17.70;;;2.90;;
54871;SDS011;43914;57.680;11.982;2023-01-10T16:23:02;14.20;;;2.40;;
54871;SDS011;43914;57.680;11.982;2023-01-10T16:25:34;14.90;;;2.20;;
54871;SDS011;43914;57.680;11.982;2023-01-10T16:28:03;17.00;;;3.00;;
54871;SDS011;43914;57.680;11.982;2023-01-10T16:30:30;21.20;;;2.80;;
54871;SDS011;43914;57.680;11.982;2023-01-10T16:33:20;16.70;;;3.10;;
54871;SDS011;43914;57.680;11.982;2023-01-10T16:35:52;17.70;;;3.10;;
54871;SDS011;43914;57.680;11.982;2023-01-10T16:38:19;27.00;;;4.20;;
54871;SDS011;43914;57.680;11.982;2023-01-10T16:40:46;17.80;;;3.20;;
54871;SDS011;43914;57.680;11.982;2023-01-10T16:43:12;22.00;;;3.50;;